createdAt,value
2024-02-19T00:01:48.045Z,4.07
2024-02-19T00:04:16.815Z,2.95
2024-02-19T00:06:44.269Z,3.97
2024-02-19T00:09:11.422Z,2.85
2024-02-19T00:11:38.862Z,3.55
2024-02-19T00:14:06.204Z,4.03
2024-02-19T00:16:33.382Z,3.33
2024-02-19T00:19:00.835Z,3.72
2024-02-19T00:21:27.990Z,2.80
2024-02-19T00:23:55.234Z,3.38
2024-02-19T00:26:22.378Z,3.03
2024-02-19T00:28:49.742Z,3.53
2024-02-19T00:31:19.705Z,2.97
2024-02-19T00:33:48.702Z,3.42
2024-02-19T00:36:17.257Z,3.65
2024-02-19T00:38:44.527Z,2.50
2024-02-19T00:41:11.631Z,3.58
2024-02-19T00:43:38.716Z,3.15
2024-02-19T00:46:05.961Z,3.45
2024-02-19T00:48:33.199Z,2.63
2024-02-19T00:51:00.586Z,2.72
2024-02-19T00:53:27.667Z,3.40
2024-02-19T00:55:54.738Z,3.08
2024-02-19T00:58:22.014Z,2.90
2024-02-19T01:00:49.328Z,3.25
2024-02-19T01:03:18.386Z,2.80
2024-02-19T01:05:46.288Z,2.80
2024-02-19T01:08:13.381Z,3.40
2024-02-19T01:10:40.568Z,3.03
2024-02-19T01:13:07.751Z,3.45
2024-02-19T01:15:34.989Z,3.80
2024-02-19T01:18:02.303Z,4.28
2024-02-19T01:20:29.426Z,3.65
2024-02-19T01:22:56.593Z,4.03
2024-02-19T01:25:23.724Z,3.55
2024-02-19T01:27:50.834Z,4.22
2024-02-19T01:30:18.025Z,3.67
2024-02-19T01:32:45.623Z,4.43
2024-02-19T01:35:13.317Z,6.38
2024-02-19T01:37:41.133Z,4.57
2024-02-19T01:40:10.860Z,4.13
2024-02-19T01:42:38.506Z,3.50
2024-02-19T01:45:08.295Z,3.75
2024-02-19T01:47:36.234Z,3.65
2024-02-19T01:50:05.026Z,3.88
2024-02-19T01:52:32.312Z,4.13
2024-02-19T01:54:59.625Z,4.15
2024-02-19T01:57:27.383Z,3.95
2024-02-19T01:59:55.140Z,4.25
2024-02-19T02:02:23.560Z,3.92
2024-02-19T02:04:51.491Z,3.38
2024-02-19T02:07:18.935Z,3.33
2024-02-19T02:09:47.913Z,4.40
2024-02-19T02:12:15.025Z,4.40
2024-02-19T02:14:42.061Z,2.85
2024-02-19T02:17:09.394Z,4.18
2024-02-19T02:19:37.485Z,3.88
2024-02-19T02:22:05.625Z,3.92
2024-02-19T02:24:32.815Z,4.03
2024-02-19T02:27:00.271Z,3.22
2024-02-19T02:29:27.386Z,3.70
2024-02-19T02:31:54.388Z,4.32
2024-02-19T02:34:21.915Z,3.03
2024-02-19T02:36:49.914Z,3.42
2024-02-19T02:39:17.637Z,3.38
2024-02-19T02:41:44.727Z,3.70
2024-02-19T02:44:11.810Z,4.03
2024-02-19T02:46:38.904Z,3.45
2024-02-19T02:49:06.064Z,3.83
2024-02-19T02:51:33.233Z,3.83
2024-02-19T02:54:00.357Z,4.03
2024-02-19T02:56:28.168Z,4.50
2024-02-19T02:58:55.328Z,4.53
2024-02-19T03:01:31.048Z,3.53
2024-02-19T03:03:58.315Z,3.17
2024-02-19T03:06:25.453Z,3.00
2024-02-19T03:08:52.658Z,4.45
2024-02-19T03:11:19.909Z,3.63
2024-02-19T03:13:47.498Z,3.60
2024-02-19T03:16:17.592Z,3.70
2024-02-19T03:18:47.017Z,3.78
2024-02-19T03:21:17.048Z,3.83
2024-02-19T03:23:54.124Z,4.38
2024-02-19T03:26:34.849Z,4.72
2024-02-19T03:29:15.244Z,4.00
2024-02-19T03:31:45.018Z,4.40
2024-02-19T03:34:12.383Z,3.92
2024-02-19T03:36:39.844Z,3.55
2024-02-19T03:39:06.929Z,4.43
2024-02-19T03:41:34.355Z,4.22
2024-02-19T03:44:01.435Z,4.40
2024-02-19T03:46:28.499Z,4.30
2024-02-19T03:48:56.651Z,3.50
2024-02-19T03:51:24.152Z,4.70
2024-02-19T03:53:51.717Z,4.50
2024-02-19T03:56:19.318Z,4.55
2024-02-19T03:58:46.678Z,3.45
2024-02-19T04:01:14.806Z,3.45
2024-02-19T04:03:42.234Z,3.80
2024-02-19T04:06:09.355Z,4.28
2024-02-19T04:08:36.371Z,3.05
2024-02-19T04:11:03.463Z,3.45
2024-02-19T04:13:30.740Z,3.80
2024-02-19T04:15:57.990Z,4.00
2024-02-19T04:18:25.438Z,3.85
2024-02-19T04:20:52.617Z,3.38
2024-02-19T04:23:19.749Z,2.33
2024-02-19T04:25:48.917Z,2.88
2024-02-19T04:28:16.149Z,3.80
2024-02-19T04:30:43.291Z,3.40
2024-02-19T04:33:11.382Z,3.30
2024-02-19T04:35:38.833Z,3.97
2024-02-19T04:38:06.353Z,3.10
2024-02-19T04:40:33.669Z,3.15
2024-02-19T04:43:00.800Z,3.25
2024-02-19T04:45:27.943Z,3.40
2024-02-19T04:47:55.158Z,3.30
2024-02-19T04:50:22.389Z,3.42
2024-02-19T04:52:49.535Z,2.95
2024-02-19T04:55:16.665Z,2.72
2024-02-19T04:57:44.046Z,3.67
2024-02-19T05:00:11.679Z,3.78
2024-02-19T05:02:38.828Z,3.10
2024-02-19T05:05:06.388Z,3.40
2024-02-19T05:07:33.643Z,3.10
2024-02-19T05:10:01.461Z,2.90
2024-02-19T05:12:28.506Z,4.05
2024-02-19T05:14:55.736Z,3.17
2024-02-19T05:17:22.908Z,3.63
2024-02-19T05:19:50.926Z,3.20
2024-02-19T05:22:18.465Z,3.42
2024-02-19T05:24:48.126Z,3.78
2024-02-19T05:27:15.411Z,3.70
2024-02-19T05:29:42.511Z,3.00
2024-02-19T05:32:09.606Z,3.58
2024-02-19T05:34:36.710Z,2.95
2024-02-19T05:37:03.954Z,3.20
2024-02-19T05:39:31.188Z,3.17
2024-02-19T05:41:58.283Z,3.45
2024-02-19T05:44:25.410Z,3.05
2024-02-19T05:46:52.554Z,3.33
2024-02-19T05:49:19.847Z,3.83
2024-02-19T05:51:49.804Z,3.08
2024-02-19T05:54:17.892Z,2.83
2024-02-19T05:56:44.957Z,2.90
2024-02-19T05:59:12.066Z,3.35
2024-02-19T06:01:39.465Z,2.85
2024-02-19T06:04:06.848Z,3.17
2024-02-19T06:06:34.928Z,3.03
2024-02-19T06:09:03.424Z,2.47
2024-02-19T06:11:31.989Z,3.90
2024-02-19T06:13:59.171Z,3.30
2024-02-19T06:16:26.307Z,3.67
2024-02-19T06:18:53.902Z,3.17
2024-02-19T06:21:21.206Z,3.05
2024-02-19T06:23:48.408Z,3.53
2024-02-19T06:26:16.353Z,3.92
2024-02-19T06:28:43.662Z,3.42
2024-02-19T06:31:11.159Z,3.63
2024-02-19T06:33:38.546Z,3.40
2024-02-19T06:36:06.253Z,3.00
2024-02-19T06:38:33.405Z,2.85
2024-02-19T06:41:00.525Z,3.83
2024-02-19T06:43:27.769Z,3.63
2024-02-19T06:45:54.947Z,2.75
2024-02-19T06:48:22.231Z,3.75
2024-02-19T06:50:50.315Z,3.72
2024-02-19T06:53:20.556Z,4.60
2024-02-19T06:55:48.122Z,3.33
2024-02-19T06:58:15.303Z,3.05
2024-02-19T07:00:42.498Z,2.45
2024-02-19T07:03:09.640Z,3.17
2024-02-19T07:05:36.804Z,2.88
2024-02-19T07:08:04.039Z,3.78
2024-02-19T07:10:31.158Z,3.50
2024-02-19T07:12:58.308Z,3.67
2024-02-19T07:15:25.393Z,3.70
2024-02-19T07:17:52.715Z,2.90
2024-02-19T07:20:19.910Z,3.20
2024-02-19T07:22:48.203Z,3.92
2024-02-19T07:25:20.834Z,3.53
2024-02-19T07:27:49.763Z,3.42
2024-02-19T07:30:17.717Z,3.45
2024-02-19T07:32:44.948Z,3.67
2024-02-19T07:35:15.325Z,2.88
2024-02-19T07:37:42.573Z,2.90
2024-02-19T07:40:10.940Z,3.42
2024-02-19T07:42:38.197Z,3.75
2024-02-19T07:45:07.046Z,3.42
2024-02-19T07:47:34.302Z,3.72
2024-02-19T07:50:01.794Z,3.38
2024-02-19T07:52:29.180Z,4.13
2024-02-19T07:54:56.604Z,3.22
2024-02-19T07:57:23.741Z,3.40
2024-02-19T07:59:50.890Z,4.20
2024-02-19T08:02:18.464Z,4.53
2024-02-19T08:04:47.050Z,3.10
2024-02-19T08:07:14.338Z,3.50
2024-02-19T08:09:41.529Z,4.05
2024-02-19T08:12:09.794Z,4.30
2024-02-19T08:14:37.126Z,3.50
2024-02-19T08:17:04.754Z,3.78
2024-02-19T08:19:31.899Z,4.70
2024-02-19T08:21:59.896Z,4.78
2024-02-19T08:24:27.210Z,3.33
2024-02-19T08:26:54.366Z,3.97
2024-02-19T08:29:21.680Z,4.65
2024-02-19T08:31:49.010Z,5.22
2024-02-19T08:34:18.152Z,4.35
2024-02-19T08:36:46.963Z,3.78
2024-02-19T08:39:14.177Z,4.93
2024-02-19T08:41:42.408Z,4.38
2024-02-19T08:44:09.593Z,4.40
2024-02-19T08:46:36.769Z,4.18
2024-02-19T08:49:04.022Z,4.95
2024-02-19T08:51:31.666Z,4.47
2024-02-19T08:54:00.153Z,3.95
2024-02-19T08:56:27.679Z,5.03
2024-02-19T08:58:54.900Z,4.55
2024-02-19T09:01:22.120Z,4.03
2024-02-19T09:03:49.830Z,4.63
2024-02-19T09:06:18.707Z,4.00
2024-02-19T09:08:46.817Z,4.47
2024-02-19T09:11:13.878Z,4.22
2024-02-19T09:13:42.667Z,4.72
2024-02-19T09:16:11.264Z,4.15
2024-02-19T09:18:38.497Z,4.43
2024-02-19T09:21:05.715Z,4.85
2024-02-19T09:23:32.855Z,4.85
2024-02-19T09:26:00.013Z,5.38
2024-02-19T09:28:27.290Z,4.43
2024-02-19T09:30:54.836Z,4.65
2024-02-19T09:33:22.187Z,3.53
2024-02-19T09:35:49.519Z,4.15
2024-02-19T09:38:20.057Z,4.32
2024-02-19T09:40:51.086Z,4.72
2024-02-19T09:43:18.882Z,4.40
2024-02-19T09:45:46.932Z,4.30
2024-02-19T09:48:18.629Z,4.22
2024-02-19T09:50:49.227Z,4.35
2024-02-19T09:53:25.078Z,4.47
2024-02-19T09:55:52.374Z,4.80
2024-02-19T09:58:20.072Z,4.68
2024-02-19T10:00:48.541Z,5.03
2024-02-19T10:03:18.811Z,3.85
2024-02-19T10:05:47.729Z,3.97
2024-02-19T10:08:17.011Z,4.93
2024-02-19T10:10:46.830Z,3.67
2024-02-19T10:13:14.836Z,3.25
2024-02-19T10:15:42.341Z,4.07
2024-02-19T10:18:14.763Z,4.05
2024-02-19T10:20:45.136Z,4.13
2024-02-19T10:23:12.399Z,4.07
2024-02-19T10:25:39.543Z,4.30
2024-02-19T10:28:09.641Z,3.97
2024-02-19T10:30:36.964Z,5.05
2024-02-19T10:33:05.058Z,4.57
2024-02-19T10:35:33.236Z,4.38
2024-02-19T10:38:01.156Z,3.15
2024-02-19T10:40:29.220Z,3.75
2024-02-19T10:42:58.011Z,3.28
2024-02-19T10:45:26.078Z,3.55
2024-02-19T10:47:54.887Z,3.65
2024-02-19T10:50:23.185Z,3.47
2024-02-19T10:52:52.267Z,3.03
2024-02-19T10:55:32.503Z,4.05
2024-02-19T10:58:16.958Z,2.95
2024-02-19T11:00:45.139Z,3.50
2024-02-19T11:03:14.717Z,3.00
2024-02-19T11:05:44.730Z,2.80
2024-02-19T11:08:22.549Z,3.13
2024-02-19T11:10:53.849Z,3.03
2024-02-19T11:13:23.274Z,3.25
2024-02-19T11:15:50.768Z,4.03
2024-02-19T11:18:19.978Z,3.10
2024-02-19T11:20:49.791Z,2.90
2024-02-19T11:23:19.844Z,2.90
2024-02-19T11:25:48.359Z,3.80
2024-02-19T11:28:16.080Z,2.72
2024-02-19T11:30:44.118Z,2.65
2024-02-19T11:33:12.796Z,2.90
2024-02-19T11:35:44.314Z,2.47
2024-02-19T11:38:11.615Z,2.67
2024-02-19T11:40:38.841Z,3.75
2024-02-19T11:43:06.753Z,2.80
2024-02-19T11:45:38.013Z,3.58
2024-02-19T11:48:06.248Z,3.38
2024-02-19T11:50:33.610Z,2.65
2024-02-19T11:53:04.038Z,3.10
2024-02-19T11:55:34.199Z,3.05
2024-02-19T11:58:02.896Z,3.20
2024-02-19T12:00:31.804Z,2.92
2024-02-19T12:03:00.127Z,3.60
2024-02-19T12:05:28.291Z,3.17
2024-02-19T12:07:55.908Z,3.15
2024-02-19T12:10:23.332Z,3.70
2024-02-19T12:12:52.234Z,3.50
2024-02-19T12:15:22.503Z,3.78
2024-02-19T12:17:49.907Z,3.90
2024-02-19T12:20:20.333Z,3.63
2024-02-19T12:22:48.991Z,3.45
2024-02-19T12:25:17.172Z,3.45
2024-02-19T12:27:44.393Z,4.78
2024-02-19T12:30:11.905Z,4.15
2024-02-19T12:32:40.485Z,4.00
2024-02-19T12:35:08.430Z,3.97
2024-02-19T12:37:35.898Z,4.30
2024-02-19T12:40:04.333Z,4.80
2024-02-19T12:42:31.835Z,3.40
2024-02-19T12:44:59.102Z,3.45
2024-02-19T12:47:26.309Z,3.47
2024-02-19T12:49:54.346Z,5.00
2024-02-19T12:52:28.696Z,3.83
2024-02-19T12:54:56.521Z,3.70
2024-02-19T12:57:23.965Z,3.75
2024-02-19T12:59:51.534Z,5.45
2024-02-19T13:02:19.041Z,3.08
2024-02-19T13:04:50.389Z,3.17
2024-02-19T13:07:18.737Z,4.43
2024-02-19T13:09:47.210Z,3.75
2024-02-19T13:12:15.435Z,3.50
2024-02-19T13:14:44.728Z,4.20
2024-02-19T13:17:15.109Z,5.00
2024-02-19T13:19:47.460Z,4.72
2024-02-19T13:22:15.873Z,4.68
2024-02-19T13:24:44.777Z,5.82
2024-02-19T13:27:12.900Z,5.55
2024-02-19T13:29:40.447Z,5.88
2024-02-19T13:32:09.683Z,6.32
2024-02-19T13:34:37.248Z,6.60
2024-02-19T13:37:05.109Z,6.72
2024-02-19T13:39:34.340Z,6.35
2024-02-19T13:42:01.849Z,5.47
2024-02-19T13:44:29.024Z,6.15
2024-02-19T13:46:56.171Z,4.88
2024-02-19T13:49:23.520Z,5.53
2024-02-19T13:51:50.722Z,3.63
2024-02-19T13:54:18.299Z,3.75
2024-02-19T13:56:45.833Z,3.95
2024-02-19T13:59:15.885Z,3.65
2024-02-19T14:01:44.177Z,4.35
2024-02-19T14:04:11.497Z,5.22
2024-02-19T14:06:38.740Z,4.03
2024-02-19T14:09:05.998Z,4.00
2024-02-19T14:11:34.081Z,3.72
2024-02-19T14:14:03.105Z,5.22
2024-02-19T14:16:31.514Z,4.70
2024-02-19T14:19:00.265Z,4.22
2024-02-19T14:21:28.250Z,4.13
2024-02-19T14:23:55.540Z,4.88
2024-02-19T14:26:26.340Z,3.97
2024-02-19T14:28:56.692Z,3.75
2024-02-19T14:31:24.246Z,4.07
2024-02-19T14:33:52.356Z,4.38
2024-02-19T14:36:20.895Z,4.68
2024-02-19T14:38:48.580Z,4.60
2024-02-19T14:41:16.200Z,3.92
2024-02-19T14:43:44.165Z,4.28
2024-02-19T14:46:11.657Z,5.25
2024-02-19T14:48:41.606Z,3.92
2024-02-19T14:51:08.904Z,4.95
2024-02-19T14:53:37.515Z,4.88
2024-02-19T14:56:05.981Z,5.13
2024-02-19T14:58:33.820Z,4.50
2024-02-19T15:01:01.560Z,4.28
2024-02-19T15:03:28.822Z,4.63
2024-02-19T15:05:56.337Z,4.85
2024-02-19T15:08:23.666Z,4.93
2024-02-19T15:10:52.309Z,4.07
2024-02-19T15:13:19.546Z,4.10
2024-02-19T15:15:48.037Z,5.53
2024-02-19T15:18:17.257Z,4.30
2024-02-19T15:20:47.091Z,5.28
2024-02-19T15:23:14.423Z,4.80
2024-02-19T15:25:42.749Z,4.80
2024-02-19T15:28:10.151Z,4.85
2024-02-19T15:30:39.466Z,4.93
2024-02-19T15:33:06.764Z,5.60
2024-02-19T15:35:34.381Z,4.13
2024-02-19T15:38:02.310Z,4.43
2024-02-19T15:40:29.846Z,4.80
2024-02-19T15:42:57.366Z,4.72
2024-02-19T15:45:24.608Z,4.40
2024-02-19T15:47:51.952Z,3.78
2024-02-19T15:50:19.483Z,3.80
2024-02-19T15:52:55.561Z,3.83
2024-02-19T15:55:29.160Z,3.25
2024-02-19T15:57:58.108Z,3.67
2024-02-19T16:00:25.615Z,3.42
2024-02-19T16:02:52.801Z,2.58
2024-02-19T16:05:20.086Z,3.75
2024-02-19T16:07:50.353Z,3.78
2024-02-19T16:10:18.400Z,3.20
2024-02-19T16:12:49.432Z,3.45
2024-02-19T16:15:18.205Z,4.57
2024-02-19T16:17:46.820Z,3.88
2024-02-19T16:20:14.026Z,4.70
2024-02-19T16:22:42.328Z,4.28
2024-02-19T16:25:09.916Z,4.82
2024-02-19T16:27:37.303Z,5.30
2024-02-19T16:30:07.240Z,4.70
2024-02-19T16:32:36.676Z,4.55
2024-02-19T16:35:04.233Z,4.05
2024-02-19T16:37:32.053Z,4.50
2024-02-19T16:39:59.614Z,4.78
2024-02-19T16:42:26.760Z,5.00
2024-02-19T16:44:53.892Z,5.93
2024-02-19T16:47:20.950Z,6.30
2024-02-19T16:49:48.520Z,4.88
2024-02-19T16:52:17.305Z,5.15
2024-02-19T16:54:44.885Z,5.32
2024-02-19T16:57:11.964Z,4.97
2024-02-19T16:59:39.066Z,4.75
2024-02-19T17:02:06.858Z,4.53
2024-02-19T17:04:34.163Z,4.25
2024-02-19T17:07:02.625Z,4.25
2024-02-19T17:09:30.898Z,3.13
2024-02-19T17:11:58.072Z,3.70
2024-02-19T17:14:25.767Z,3.78
2024-02-19T17:16:53.992Z,3.65
2024-02-19T17:19:21.550Z,3.72
2024-02-19T17:21:49.321Z,3.58
2024-02-19T17:24:17.849Z,2.92
2024-02-19T17:26:44.912Z,4.53
2024-02-19T17:29:12.063Z,4.15
2024-02-19T17:31:40.326Z,3.38
2024-02-19T17:34:07.854Z,3.30
2024-02-19T17:36:35.448Z,3.17
2024-02-19T17:39:02.981Z,3.45
2024-02-19T17:41:33.096Z,3.75
2024-02-19T17:44:00.655Z,3.10
2024-02-19T17:46:29.160Z,3.58
2024-02-19T17:48:56.430Z,3.28
2024-02-19T17:51:29.407Z,3.30
2024-02-19T17:53:58.993Z,3.50
2024-02-19T17:56:29.366Z,3.35
2024-02-19T17:58:56.973Z,3.42
2024-02-19T18:01:26.798Z,3.80
2024-02-19T18:03:55.189Z,4.45
2024-02-19T18:06:22.506Z,3.17
2024-02-19T18:08:52.867Z,4.18
2024-02-19T18:11:20.292Z,4.57
2024-02-19T18:13:48.314Z,3.08
2024-02-19T18:16:16.753Z,3.60
2024-02-19T18:18:46.723Z,4.55
2024-02-19T18:21:16.756Z,3.13
2024-02-19T18:23:44.373Z,4.22
2024-02-19T18:26:12.986Z,3.42
2024-02-19T18:28:40.274Z,2.80
2024-02-19T18:31:11.389Z,3.00
2024-02-19T18:33:38.627Z,3.83
2024-02-19T18:36:08.552Z,4.45
2024-02-19T18:38:38.619Z,3.42
2024-02-19T18:41:07.778Z,3.95
2024-02-19T18:43:34.941Z,3.35
2024-02-19T18:46:02.804Z,3.47
2024-02-19T18:48:31.487Z,5.05
2024-02-19T18:50:59.665Z,3.83
2024-02-19T18:53:27.758Z,3.75
2024-02-19T18:56:02.569Z,3.75
2024-02-19T18:58:30.538Z,4.72
2024-02-19T19:00:59.143Z,3.92
2024-02-19T19:03:28.394Z,4.30
2024-02-19T19:06:04.088Z,4.43
2024-02-19T19:08:31.738Z,4.53
2024-02-19T19:10:58.949Z,4.75
2024-02-19T19:13:26.650Z,3.90
2024-02-19T19:15:54.548Z,4.43
2024-02-19T19:18:22.992Z,4.15
2024-02-19T19:20:50.478Z,4.15
2024-02-19T19:23:18.063Z,4.45
2024-02-19T19:25:45.188Z,5.90
2024-02-19T19:28:12.439Z,4.43
2024-02-19T19:30:39.594Z,4.70
2024-02-19T19:33:06.776Z,5.00
2024-02-19T19:35:34.635Z,5.38
2024-02-19T19:38:01.781Z,3.50
2024-02-19T19:40:28.956Z,3.80
2024-02-19T19:42:56.207Z,4.53
2024-02-19T19:45:24.355Z,3.92
2024-02-19T19:47:51.628Z,4.18
2024-02-19T19:50:20.324Z,4.72
2024-02-19T19:52:48.246Z,4.63
2024-02-19T19:55:15.487Z,4.90
2024-02-19T19:57:51.791Z,3.72
2024-02-19T20:00:19.840Z,4.40
2024-02-19T20:02:48.060Z,4.45
2024-02-19T20:05:15.303Z,3.65
2024-02-19T20:07:42.780Z,4.25
2024-02-19T20:10:14.703Z,4.45
2024-02-19T20:12:42.049Z,4.57
2024-02-19T20:15:09.416Z,4.50
2024-02-19T20:17:36.836Z,4.15
2024-02-19T20:20:05.905Z,4.55
2024-02-19T20:22:33.269Z,5.65
2024-02-19T20:25:01.246Z,4.22
2024-02-19T20:27:28.447Z,5.90
2024-02-19T20:29:55.646Z,4.15
2024-02-19T20:32:23.367Z,4.53
2024-02-19T20:34:51.005Z,5.05
2024-02-19T20:37:19.325Z,4.57
2024-02-19T20:39:49.834Z,4.93
2024-02-19T20:42:18.789Z,4.68
2024-02-19T20:44:48.248Z,4.72
2024-02-19T20:47:15.468Z,4.05
2024-02-19T20:49:45.590Z,4.47
2024-02-19T20:52:13.486Z,4.05
2024-02-19T20:54:40.887Z,5.10
2024-02-19T20:57:08.084Z,5.22
2024-02-19T20:59:35.610Z,4.53
2024-02-19T21:02:02.971Z,5.80
2024-02-19T21:04:35.779Z,4.38
2024-02-19T21:07:05.983Z,5.57
2024-02-19T21:09:33.219Z,5.78
2024-02-19T21:12:00.368Z,6.07
2024-02-19T21:14:28.295Z,5.43
2024-02-19T21:16:56.452Z,5.30
2024-02-19T21:19:24.906Z,6.22
2024-02-19T21:21:52.792Z,3.97
2024-02-19T21:24:20.018Z,4.15
2024-02-19T21:26:48.475Z,5.57
2024-02-19T21:29:15.629Z,5.00
2024-02-19T21:31:42.761Z,4.82
2024-02-19T21:34:12.751Z,5.78
2024-02-19T21:36:40.838Z,4.15
2024-02-19T21:39:08.019Z,4.80
2024-02-19T21:41:35.833Z,4.95
2024-02-19T21:44:06.892Z,6.55
2024-02-19T21:46:37.427Z,6.53
2024-02-19T21:49:05.017Z,4.57
2024-02-19T21:51:32.406Z,4.60
2024-02-19T21:53:59.588Z,5.25
2024-02-19T21:56:27.209Z,4.95
2024-02-19T21:58:54.434Z,4.53
2024-02-19T22:01:22.512Z,5.28
2024-02-19T22:03:50.594Z,5.85
2024-02-19T22:06:18.892Z,4.78
2024-02-19T22:08:46.111Z,6.60
2024-02-19T22:11:14.470Z,9.05
2024-02-19T22:13:41.765Z,10.30
2024-02-19T22:16:08.934Z,11.15
2024-02-19T22:18:36.105Z,9.13
2024-02-19T22:21:03.740Z,7.20
2024-02-19T22:23:31.353Z,6.72
2024-02-19T22:25:58.447Z,6.50
2024-02-19T22:28:25.799Z,6.03
2024-02-19T22:30:52.946Z,5.55
2024-02-19T22:33:20.156Z,5.45
2024-02-19T22:35:48.236Z,5.30
2024-02-19T22:38:15.386Z,6.10
2024-02-19T22:40:43.037Z,5.57
2024-02-19T22:43:11.538Z,5.93
2024-02-19T22:45:39.130Z,5.10
2024-02-19T22:48:09.881Z,4.13
2024-02-19T22:50:38.592Z,4.80
2024-02-19T22:53:06.214Z,5.57
2024-02-19T22:55:33.540Z,3.70
2024-02-19T22:58:00.767Z,5.20
2024-02-19T23:00:28.469Z,4.68
2024-02-19T23:02:55.951Z,6.03
2024-02-19T23:05:23.324Z,5.13
2024-02-19T23:07:54.756Z,4.43
2024-02-19T23:10:22.717Z,5.35
2024-02-19T23:12:51.422Z,4.88
2024-02-19T23:15:19.593Z,4.82
2024-02-19T23:17:47.314Z,4.25
2024-02-19T23:20:14.540Z,4.35
2024-02-19T23:22:44.850Z,4.45
2024-02-19T23:25:12.470Z,5.13
2024-02-19T23:27:40.213Z,3.67
2024-02-19T23:30:08.936Z,5.10
2024-02-19T23:32:38.924Z,4.20
2024-02-19T23:35:07.767Z,3.85
2024-02-19T23:37:35.325Z,5.32
2024-02-19T23:40:05.008Z,5.90
2024-02-19T23:42:32.195Z,5.53
2024-02-19T23:44:59.305Z,4.15
2024-02-19T23:47:26.456Z,4.00
2024-02-19T23:49:53.590Z,5.22
2024-02-19T23:52:20.796Z,6.28
2024-02-19T23:54:48.994Z,4.40
2024-02-19T23:57:16.128Z,5.50
2024-02-19T23:59:43.277Z,4.78
